Time;durP1;ratioP1;P1;durP2;ratioP2;P2;SDS_P1;SDS_P2;PMS_P1;PMS_P2;Temp;Humidity;BMP_temperature;BMP_pressure;BME280_temperature;BME280_humidity;BME280_pressure;Samples;Min_cycle;Max_cycle;Signal;HPM_P1;HPM_P2
2023/04/05 00:02:12;;;;;;;2.58;0.43;;;;;;;;;;20837181;28;20402;-60
2023/04/05 00:12:14;;;;;;;1.52;0.32;;;;;;;;;;20836235;28;20058;-61
2023/04/05 00:22:19;;;;;;;0.73;0.22;;;;;;;;;;20833396;28;20053;-59
2023/04/05 00:32:20;;;;;;;0.82;0.55;;;;;;;;;;20833640;28;20050;-60
2023/04/05 00:42:22;;;;;;;2.38;0.40;;;;;;;;;;20833943;28;20045;-60
2023/04/05 00:52:25;;;;;;;1.00;0.40;;;;;;;;;;20831946;28;20057;-60
2023/04/05 01:02:32;;;;;;;4.38;0.38;;;;;;;;;;20831358;28;20107;-60
2023/04/05 01:12:35;;;;;;;0.70;0.30;;;;;;;;;;20831983;28;20049;-60
2023/04/05 01:22:50;;;;;;;1.55;0.40;;;;;;;;;;20832446;28;20056;-60
2023/04/05 01:33:01;;;;;;;1.63;0.40;;;;;;;;;;20829821;28;20053;-60
2023/04/05 01:43:03;;;;;;;1.85;0.40;;;;;;;;;;20830943;28;20095;-60
2023/04/05 01:53:04;;;;;;;0.50;0.25;;;;;;;;;;20830511;28;20053;-60
2023/04/05 02:03:06;;;;;;;0.95;0.30;;;;;;;;;;20830013;28;20503;-58
2023/04/05 02:13:08;;;;;;;0.93;0.55;;;;;;;;;;20829659;28;20410;-60
2023/04/05 02:23:09;;;;;;;1.70;0.47;;;;;;;;;;20828200;28;20050;-60
2023/04/05 02:33:11;;;;;;;1.10;0.50;;;;;;;;;;20828705;28;20049;-59
2023/04/05 02:43:13;;;;;;;1.85;0.40;;;;;;;;;;20835323;28;20046;-60
2023/04/05 02:53:14;;;;;;;1.65;0.32;;;;;;;;;;20842593;28;20506;-60
2023/04/05 03:03:23;;;;;;;0.35;0.20;;;;;;;;;;20841775;28;20045;-59
2023/04/05 03:13:24;;;;;;;2.17;0.30;;;;;;;;;;20841015;28;20095;-60
2023/04/05 03:23:30;;;;;;;1.95;0.40;;;;;;;;;;20841371;28;20418;-60
2023/04/05 03:33:31;;;;;;;0.63;0.43;;;;;;;;;;20839538;28;20042;-60
2023/04/05 03:43:33;;;;;;;3.50;0.75;;;;;;;;;;20838750;28;20049;-59
2023/04/05 03:53:35;;;;;;;0.85;0.32;;;;;;;;;;20837794;28;20045;-61
2023/04/05 04:03:36;;;;;;;1.00;0.47;;;;;;;;;;20835477;28;20052;-60
2023/04/05 04:13:38;;;;;;;2.17;0.63;;;;;;;;;;20836251;28;20384;-60
2023/04/05 04:23:44;;;;;;;2.15;0.60;;;;;;;;;;20833899;28;20515;-59
2023/04/05 04:33:46;;;;;;;3.30;0.40;;;;;;;;;;20834609;28;20053;-60
2023/04/05 04:43:48;;;;;;;1.95;0.40;;;;;;;;;;20833903;28;20049;-60
2023/04/05 04:53:50;;;;;;;2.83;0.52;;;;;;;;;;20832146;28;20049;-59
2023/04/05 05:03:52;;;;;;;1.33;0.50;;;;;;;;;;20831088;28;20100;-60
2023/04/05 05:13:54;;;;;;;2.58;0.63;;;;;;;;;;20830356;28;20060;-59
2023/04/05 05:23:55;;;;;;;2.75;0.75;;;;;;;;;;20830463;28;20046;-60
2023/04/05 05:33:57;;;;;;;3.90;0.80;;;;;;;;;;20830776;28;20458;-59
2023/04/05 05:43:59;;;;;;;1.55;0.70;;;;;;;;;;20830825;28;20068;-60
2023/04/05 05:54:01;;;;;;;1.73;0.75;;;;;;;;;;20830390;28;20522;-59
2023/04/05 06:04:02;;;;;;;24.48;11.68;;;;;;;;;;20829899;28;20049;-59
2023/04/05 06:14:04;;;;;;;3.08;0.90;;;;;;;;;;20829008;28;20064;-60
2023/04/05 06:24:06;;;;;;;2.53;0.90;;;;;;;;;;20843182;28;20052;-59
2023/04/05 06:34:08;;;;;;;6.53;0.95;;;;;;;;;;20842638;28;20091;-59
2023/04/05 06:44:10;;;;;;;3.00;0.95;;;;;;;;;;20842384;28;20128;-60
2023/04/05 06:54:11;;;;;;;2.75;1.00;;;;;;;;;;20841804;28;20054;-60
2023/04/05 07:04:13;;;;;;;7.88;1.08;;;;;;;;;;20841587;28;20398;-59
2023/04/05 07:14:15;;;;;;;2.92;1.00;;;;;;;;;;20839660;28;20067;-59
2023/04/05 07:24:17;;;;;;;6.05;1.40;;;;;;;;;;20840196;28;20045;-59
2023/04/05 07:34:18;;;;;;;8.82;0.98;;;;;;;;;;20838039;28;20056;-60
2023/04/05 07:44:20;;;;;;;5.65;1.20;;;;;;;;;;20837637;28;20115;-60
2023/04/05 07:54:22;;;;;;;6.13;1.08;;;;;;;;;;20836204;28;20502;-59
2023/04/05 08:04:25;;;;;;;2.97;0.50;;;;;;;;;;20835594;28;20490;-64
2023/04/05 08:14:27;;;;;;;2.60;0.50;;;;;;;;;;20835496;28;20054;-64
2023/04/05 08:24:28;;;;;;;1.08;0.32;;;;;;;;;;20833412;28;20049;-66
2023/04/05 08:34:30;;;;;;;2.05;0.60;;;;;;;;;;20832431;28;20053;-65
2023/04/05 08:44:36;;;;;;;1.85;0.40;;;;;;;;;;20832507;28;20486;-62
2023/04/05 08:54:38;;;;;;;1.98;0.40;;;;;;;;;;20831978;28;20056;-63
2023/04/05 09:04:43;;;;;;;0.82;0.20;;;;;;;;;;20832165;28;20045;-63
2023/04/05 09:14:47;;;;;;;2.92;0.30;;;;;;;;;;20831847;28;20061;-65
2023/04/05 09:24:49;;;;;;;3.78;0.40;;;;;;;;;;20831856;28;20522;-64
2023/04/05 09:34:52;;;;;;;1.58;0.50;;;;;;;;;;20830902;28;20140;-66
2023/04/05 09:44:54;;;;;;;3.05;0.45;;;;;;;;;;20829741;28;20053;-63
2023/04/05 09:54:57;;;;;;;6.28;0.43;;;;;;;;;;20843092;28;20049;-64
2023/04/05 10:05:05;;;;;;;2.53;0.35;;;;;;;;;;20845763;28;20041;-64
2023/04/05 10:15:07;;;;;;;0.80;0.35;;;;;;;;;;20835624;28;20100;-69
2023/04/05 10:25:28;;;;;;;1.33;0.30;;;;;;;;;;20843727;28;20049;-69
2023/04/05 10:35:35;;;;;;;2.08;0.30;;;;;;;;;;20834651;28;20041;-67
2023/04/05 10:45:38;;;;;;;2.73;0.20;;;;;;;;;;20844827;28;20049;-58
2023/04/05 10:55:40;;;;;;;1.38;0.40;;;;;;;;;;20870600;28;20053;-62
2023/04/05 11:05:42;;;;;;;2.17;0.60;;;;;;;;;;20880453;28;20492;-61
2023/04/05 11:15:44;;;;;;;0.90;0.55;;;;;;;;;;20837478;28;20057;-65
2023/04/05 11:25:51;;;;;;;1.73;0.20;;;;;;;;;;20835397;28;20057;-65
2023/04/05 11:36:00;;;;;;;2.15;0.52;;;;;;;;;;20830536;28;20053;-66
2023/04/05 11:46:03;;;;;;;1.23;0.45;;;;;;;;;;20835172;28;20136;-65
2023/04/05 11:56:11;;;;;;;3.80;0.60;;;;;;;;;;20836853;28;20091;-65
2023/04/05 12:06:13;;;;;;;0.60;0.20;;;;;;;;;;20835946;28;20054;-66
2023/04/05 12:16:15;;;;;;;0.80;0.20;;;;;;;;;;20835677;28;20049;-65
2023/04/05 12:26:17;;;;;;;1.77;0.40;;;;;;;;;;20835763;28;20525;-66
2023/04/05 12:36:22;;;;;;;4.13;0.40;;;;;;;;;;20834543;28;20482;-65
2023/04/05 12:46:38;;;;;;;0.55;0.30;;;;;;;;;;20833788;28;20501;-65
2023/04/05 12:56:40;;;;;;;2.83;0.80;;;;;;;;;;20832015;28;20057;-66
2023/04/05 13:06:42;;;;;;;2.03;0.88;;;;;;;;;;20832576;28;20478;-66
2023/04/05 13:16:44;;;;;;;1.23;0.25;;;;;;;;;;20831417;28;20048;-65
2023/04/05 13:26:45;;;;;;;3.50;0.70;;;;;;;;;;20830612;28;20053;-66
2023/04/05 13:36:48;;;;;;;0.70;0.28;;;;;;;;;;20830156;28;20153;-66
2023/04/05 13:46:50;;;;;;;0.85;0.40;;;;;;;;;;20829537;28;20057;-66
2023/04/05 13:56:51;;;;;;;2.83;0.50;;;;;;;;;;20828822;28;20048;-65
2023/04/05 14:06:53;;;;;;;2.45;0.35;;;;;;;;;;20830112;28;20053;-67
2023/04/05 14:16:55;;;;;;;1.00;0.30;;;;;;;;;;20829320;28;20049;-65
2023/04/05 14:26:57;;;;;;;1.48;0.50;;;;;;;;;;20829405;28;20111;-68
2023/04/05 14:36:59;;;;;;;1.42;0.43;;;;;;;;;;20832590;28;20046;-67
2023/04/05 14:47:01;;;;;;;1.90;0.55;;;;;;;;;;20843148;28;20045;-67
2023/04/05 14:57:03;;;;;;;1.88;0.77;;;;;;;;;;20842662;28;20548;-66
2023/04/05 15:07:05;;;;;;;0.77;0.40;;;;;;;;;;20841792;28;20045;-66
2023/04/05 15:17:07;;;;;;;0.47;0.10;;;;;;;;;;20840634;28;20041;-65
2023/04/05 15:27:10;;;;;;;1.30;0.38;;;;;;;;;;20839189;28;20046;-66
2023/04/05 15:37:12;;;;;;;0.22;0.10;;;;;;;;;;20839743;28;20379;-67
2023/04/05 15:47:13;;;;;;;2.72;0.38;;;;;;;;;;20838843;28;20041;-67
2023/04/05 15:57:15;;;;;;;0.35;0.15;;;;;;;;;;20838065;28;20483;-67
2023/04/05 16:07:17;;;;;;;0.47;0.20;;;;;;;;;;20837386;28;20525;-67
2023/04/05 16:17:19;;;;;;;1.58;0.50;;;;;;;;;;20835439;28;20054;-66
2023/04/05 16:27:21;;;;;;;1.35;0.50;;;;;;;;;;20835340;28;20049;-66
2023/04/05 16:37:22;;;;;;;1.25;0.50;;;;;;;;;;20834912;28;20052;-68
2023/04/05 16:47:24;;;;;;;0.55;0.20;;;;;;;;;;20834933;28;20045;-67
2023/04/05 16:57:26;;;;;;;1.23;0.30;;;;;;;;;;20834607;28;20057;-66
2023/04/05 17:07:28;;;;;;;0.93;0.32;;;;;;;;;;20832843;28;20068;-66
2023/04/05 17:17:30;;;;;;;1.58;0.30;;;;;;;;;;20831326;28;20056;-67
2023/04/05 17:27:31;;;;;;;0.90;0.20;;;;;;;;;;20831420;28;20064;-66
2023/04/05 17:37:34;;;;;;;0.30;0.10;;;;;;;;;;20830824;28;20483;-66
2023/04/05 17:47:36;;;;;;;1.30;0.70;;;;;;;;;;20829350;28;20049;-66
2023/04/05 17:57:38;;;;;;;1.75;0.30;;;;;;;;;;20830098;28;20049;-66
2023/04/05 18:07:41;;;;;;;2.92;0.75;;;;;;;;;;20829430;28;20049;-66
2023/04/05 18:17:44;;;;;;;4.90;1.27;;;;;;;;;;20842340;28;20060;-66
2023/04/05 18:27:46;;;;;;;4.45;1.73;;;;;;;;;;20844770;28;20049;-67
2023/04/05 18:37:47;;;;;;;3.70;1.33;;;;;;;;;;20844240;28;20506;-66
2023/04/05 18:47:49;;;;;;;10.52;3.85;;;;;;;;;;20842643;28;20050;-66
2023/04/05 18:57:51;;;;;;;5.82;2.90;;;;;;;;;;20840221;28;20046;-66
2023/04/05 19:07:52;;;;;;;9.18;3.33;;;;;;;;;;20839566;28;20049;-66
2023/04/05 19:17:54;;;;;;;10.68;4.68;;;;;;;;;;20838720;28;20132;-66
2023/04/05 19:27:56;;;;;;;14.38;7.13;;;;;;;;;;20839101;28;20427;-65
2023/04/05 19:37:58;;;;;;;13.40;6.35;;;;;;;;;;20840199;28;20491;-65
2023/04/05 19:48:00;;;;;;;10.60;4.35;;;;;;;;;;20840364;28;20050;-66
2023/04/05 19:58:09;;;;;;;9.05;3.95;;;;;;;;;;20836008;28;20049;-66
2023/04/05 20:08:10;;;;;;;9.63;4.40;;;;;;;;;;20834684;28;20041;-66
2023/04/05 20:18:17;;;;;;;12.00;4.03;;;;;;;;;;20834513;28;20053;-66
2023/04/05 20:28:25;;;;;;;8.77;3.13;;;;;;;;;;20835402;28;20064;-66
2023/04/05 20:38:26;;;;;;;6.55;3.67;;;;;;;;;;20833978;28;20054;-66
2023/04/05 20:48:29;;;;;;;16.50;7.82;;;;;;;;;;20833303;28;20065;-67
2023/04/05 20:58:30;;;;;;;26.05;16.13;;;;;;;;;;20832038;28;20482;-68
2023/04/05 21:08:32;;;;;;;16.15;7.85;;;;;;;;;;20830564;28;20052;-66
2023/04/05 21:18:33;;;;;;;36.28;20.33;;;;;;;;;;20830841;28;20474;-67
2023/04/05 21:28:35;;;;;;;10.25;5.50;;;;;;;;;;20831507;28;20049;-67
2023/04/05 21:38:36;;;;;;;9.68;2.20;;;;;;;;;;20831185;28;20049;-67
2023/04/05 21:48:38;;;;;;;5.80;1.77;;;;;;;;;;20839443;28;20053;-66
2023/04/05 21:58:41;;;;;;;7.30;2.10;;;;;;;;;;20847298;28;20410;-67
2023/04/05 22:08:43;;;;;;;4.68;1.60;;;;;;;;;;20844942;28;20057;-66
2023/04/05 22:18:45;;;;;;;4.82;1.17;;;;;;;;;;20845269;28;20060;-66
2023/04/05 22:28:46;;;;;;;5.68;1.52;;;;;;;;;;20843998;28;20049;-65
2023/04/05 22:38:48;;;;;;;4.50;2.30;;;;;;;;;;20844167;28;20111;-66
2023/04/05 22:48:49;;;;;;;5.82;2.75;;;;;;;;;;20843465;28;20410;-66
2023/04/05 22:58:51;;;;;;;5.03;1.63;;;;;;;;;;20840259;28;20046;-64
2023/04/05 23:08:53;;;;;;;3.53;1.42;;;;;;;;;;20842529;28;20057;-67
2023/04/05 23:18:54;;;;;;;5.63;1.75;;;;;;;;;;20840588;28;20050;-66
2023/04/05 23:28:56;;;;;;;2.17;0.80;;;;;;;;;;20840123;28;20050;-66
2023/04/05 23:38:59;;;;;;;3.33;0.93;;;;;;;;;;20839701;28;20471;-66
2023/04/05 23:49:01;;;;;;;1.58;0.57;;;;;;;;;;20838330;28;20091;-66
2023/04/05 23:59:02;;;;;;;0.77;0.40;;;;;;;;;;20837845;28;20045;-67
